createdAt,value
2023-02-03T00:00:02.231Z,4.85
2023-02-03T00:02:04.027Z,1.83
2023-02-03T00:04:05.988Z,3.22
2023-02-03T00:06:08.471Z,5.07
2023-02-03T00:08:11.820Z,5.53
2023-02-03T00:10:14.304Z,1.60
2023-02-03T00:12:16.195Z,4.32
2023-02-03T00:14:17.998Z,3.50
2023-02-03T00:16:19.863Z,3.78
2023-02-03T00:18:21.750Z,5.22
2023-02-03T00:20:23.998Z,3.50
2023-02-03T00:22:25.916Z,2.97
2023-02-03T00:24:27.721Z,2.30
2023-02-03T00:26:29.940Z,2.33
2023-02-03T00:28:31.965Z,4.18
2023-02-03T00:30:36.057Z,3.13
2023-02-03T00:32:38.402Z,5.03
2023-02-03T00:34:40.141Z,5.78
2023-02-03T00:36:43.034Z,4.38
2023-02-03T00:38:45.329Z,5.22
2023-02-03T00:40:53.573Z,5.00
2023-02-03T00:42:55.953Z,5.40
2023-02-03T00:44:59.940Z,6.78
2023-02-03T00:47:01.864Z,1.55
2023-02-03T00:49:04.850Z,6.95
2023-02-03T00:51:07.335Z,5.75
2023-02-03T00:53:09.490Z,3.03
2023-02-03T00:55:13.959Z,4.90
2023-02-03T00:57:15.745Z,1.55
2023-02-03T00:59:18.167Z,2.25
2023-02-03T01:01:20.007Z,3.42
2023-02-03T01:03:21.755Z,3.72
2023-02-03T01:05:23.919Z,7.28
2023-02-03T01:07:25.744Z,4.40
2023-02-03T01:09:27.530Z,3.10
2023-02-03T01:11:29.314Z,5.63
2023-02-03T01:13:31.195Z,6.65
2023-02-03T01:15:33.344Z,4.53
2023-02-03T01:17:35.111Z,6.03
2023-02-03T01:19:36.919Z,5.80
2023-02-03T01:21:38.877Z,6.10
2023-02-03T01:23:40.955Z,5.97
2023-02-03T01:25:42.747Z,6.57
2023-02-03T01:27:44.926Z,3.33
2023-02-03T01:29:46.774Z,3.20
2023-02-03T01:31:48.695Z,5.25
2023-02-03T01:33:52.698Z,8.60
2023-02-03T01:35:54.445Z,3.30
2023-02-03T01:37:56.268Z,3.03
2023-02-03T01:39:58.105Z,4.05
2023-02-03T01:41:59.901Z,3.95
2023-02-03T01:44:02.856Z,3.08
2023-02-03T01:46:11.196Z,7.10
2023-02-03T01:48:12.977Z,5.93
2023-02-03T01:50:21.585Z,4.32
2023-02-03T01:52:24.219Z,3.28
2023-02-03T01:54:29.935Z,4.25
2023-02-03T01:56:39.025Z,3.92
2023-02-03T01:58:43.503Z,6.18
2023-02-03T02:00:46.246Z,4.30
2023-02-03T02:02:50.342Z,2.65
2023-02-03T02:04:58.398Z,4.50
2023-02-03T02:07:00.814Z,6.90
2023-02-03T02:09:03.340Z,6.25
2023-02-03T02:11:06.893Z,5.03
2023-02-03T02:13:08.916Z,3.13
2023-02-03T02:15:11.179Z,4.55
2023-02-03T02:17:28.994Z,3.95
2023-02-03T02:19:37.002Z,6.32
2023-02-03T02:21:43.199Z,5.93
2023-02-03T02:23:52.901Z,3.15
2023-02-03T02:26:00.934Z,4.25
2023-02-03T02:28:06.198Z,4.75
2023-02-03T02:30:22.346Z,4.60
2023-02-03T02:32:27.559Z,4.05
2023-02-03T02:34:39.358Z,4.93
2023-02-03T02:36:47.376Z,6.82
2023-02-03T02:39:01.297Z,7.57
2023-02-03T02:41:10.776Z,4.43
2023-02-03T02:43:18.750Z,10.18
2023-02-03T02:45:27.045Z,3.35
2023-02-03T02:47:29.168Z,4.43
2023-02-03T02:49:34.439Z,5.85
2023-02-03T02:51:39.249Z,4.75
2023-02-03T02:53:48.630Z,3.78
2023-02-03T02:55:54.004Z,6.00
2023-02-03T02:58:01.125Z,4.78
2023-02-03T03:00:06.150Z,5.22
2023-02-03T03:02:11.049Z,7.20
2023-02-03T03:04:18.950Z,8.25
2023-02-03T03:06:25.036Z,2.80
2023-02-03T03:08:37.353Z,4.43
2023-02-03T03:10:43.323Z,1.80
2023-02-03T03:12:50.060Z,3.60
2023-02-03T03:14:59.504Z,8.02
2023-02-03T03:17:06.071Z,6.28
2023-02-03T03:19:12.629Z,4.32
2023-02-03T03:21:21.058Z,6.10
2023-02-03T03:23:28.277Z,4.07
2023-02-03T03:25:39.480Z,4.35
2023-02-03T03:27:46.954Z,5.03
2023-02-03T03:29:56.103Z,3.85
2023-02-03T03:32:01.252Z,3.85
2023-02-03T03:34:03.745Z,4.18
2023-02-03T03:36:09.274Z,4.63
2023-02-03T03:38:20.884Z,2.25
2023-02-03T03:40:29.065Z,4.70
2023-02-03T03:42:37.108Z,2.65
2023-02-03T03:44:48.391Z,1.58
2023-02-03T03:47:01.915Z,6.25
2023-02-03T03:49:07.919Z,6.38
2023-02-03T03:51:16.920Z,4.25
2023-02-03T03:53:19.981Z,1.83
2023-02-03T03:55:22.266Z,2.50
2023-02-03T03:57:31.054Z,7.18
2023-02-03T03:59:37.602Z,3.53
2023-02-03T04:01:40.118Z,6.43
2023-02-03T04:03:49.914Z,4.68
2023-02-03T04:05:52.019Z,5.63
2023-02-03T04:07:53.777Z,5.28
2023-02-03T04:09:55.895Z,4.72
2023-02-03T04:12:00.757Z,3.20
2023-02-03T04:14:02.938Z,3.90
2023-02-03T04:16:05.148Z,4.93
2023-02-03T04:18:06.999Z,6.45
2023-02-03T04:20:09.794Z,2.58
2023-02-03T04:22:12.149Z,7.68
2023-02-03T04:24:13.986Z,4.05
2023-02-03T04:26:18.160Z,3.42
2023-02-03T04:28:19.994Z,3.67
2023-02-03T04:30:22.075Z,6.47
2023-02-03T04:32:24.159Z,4.75
2023-02-03T04:34:25.991Z,3.40
2023-02-03T04:36:27.865Z,4.90
2023-02-03T04:38:30.120Z,6.55
2023-02-03T04:40:34.692Z,3.75
2023-02-03T04:42:38.886Z,2.58
2023-02-03T04:44:41.085Z,8.40
2023-02-03T04:46:42.844Z,6.88
2023-02-03T04:48:45.142Z,5.70
2023-02-03T04:50:47.040Z,5.55
2023-02-03T04:52:48.762Z,4.07
2023-02-03T04:54:50.514Z,2.85
2023-02-03T04:56:52.450Z,5.50
2023-02-03T04:58:54.589Z,3.50
2023-02-03T05:00:56.403Z,5.15
2023-02-03T05:02:58.324Z,7.55
2023-02-03T05:05:00.425Z,4.78
2023-02-03T05:07:02.324Z,5.70
2023-02-03T05:09:04.363Z,3.40
2023-02-03T05:11:06.791Z,7.03
2023-02-03T05:13:13.132Z,3.85
2023-02-03T05:15:17.067Z,8.65
2023-02-03T05:17:18.860Z,5.82
2023-02-03T05:19:20.643Z,6.60
2023-02-03T05:21:22.952Z,7.78
2023-02-03T05:23:24.791Z,5.55
2023-02-03T05:25:26.817Z,6.25
2023-02-03T05:27:28.784Z,6.00
2023-02-03T05:29:30.564Z,4.60
2023-02-03T05:31:33.666Z,7.15
2023-02-03T05:33:35.945Z,7.57
2023-02-03T05:35:37.842Z,4.45
2023-02-03T05:37:39.866Z,4.25
2023-02-03T05:39:43.995Z,6.07
2023-02-03T05:41:48.834Z,2.88
2023-02-03T05:43:50.984Z,5.65
2023-02-03T05:45:52.829Z,1.40
2023-02-03T05:47:54.580Z,4.70
2023-02-03T05:49:56.379Z,5.03
2023-02-03T05:51:58.216Z,3.25
2023-02-03T05:54:02.726Z,7.13
2023-02-03T05:56:04.820Z,1.77
2023-02-03T05:58:06.545Z,8.82
2023-02-03T06:00:09.215Z,6.15
2023-02-03T06:02:10.939Z,4.20
2023-02-03T06:04:15.228Z,4.22
2023-02-03T06:06:17.580Z,5.10
2023-02-03T06:08:21.557Z,3.28
2023-02-03T06:10:23.326Z,6.45
2023-02-03T06:12:26.975Z,5.50
2023-02-03T06:14:30.320Z,4.93
2023-02-03T06:16:32.264Z,2.75
2023-02-03T06:18:34.079Z,4.50
2023-02-03T06:20:35.995Z,5.30
2023-02-03T06:22:38.211Z,4.25
2023-02-03T06:24:42.294Z,4.93
2023-02-03T06:26:44.083Z,3.30
2023-02-03T06:28:45.909Z,6.50
2023-02-03T06:30:51.330Z,2.38
2023-02-03T06:32:53.260Z,1.95
2023-02-03T06:34:57.444Z,6.15
2023-02-03T06:37:00.044Z,5.00
2023-02-03T06:39:01.954Z,3.13
2023-02-03T06:41:05.113Z,7.00
2023-02-03T06:43:06.904Z,3.63
2023-02-03T06:45:09.688Z,4.00
2023-02-03T06:47:11.493Z,4.75
2023-02-03T06:49:13.619Z,4.95
2023-02-03T06:51:15.785Z,3.65
2023-02-03T06:53:17.638Z,5.53
2023-02-03T06:55:19.364Z,1.63
2023-02-03T06:57:21.480Z,5.28
2023-02-03T06:59:23.358Z,7.95
2023-02-03T07:01:26.246Z,7.18
2023-02-03T07:03:28.138Z,3.25
2023-02-03T07:05:30.448Z,6.63
2023-02-03T07:07:35.001Z,4.05
2023-02-03T07:09:36.870Z,4.55
2023-02-03T07:11:38.666Z,7.75
2023-02-03T07:13:42.510Z,4.43
2023-02-03T07:15:44.367Z,2.50
2023-02-03T07:17:54.614Z,5.15
2023-02-03T07:19:56.689Z,4.80
2023-02-03T07:22:00.939Z,3.90
2023-02-03T07:24:03.224Z,4.88
2023-02-03T07:26:06.664Z,2.85
2023-02-03T07:28:08.997Z,5.30
2023-02-03T07:30:13.895Z,2.45
2023-02-03T07:32:15.744Z,13.30
2023-02-03T07:34:17.525Z,5.78
2023-02-03T07:36:19.371Z,3.65
2023-02-03T07:38:21.547Z,4.35
2023-02-03T07:40:25.905Z,5.95
2023-02-03T07:42:27.885Z,4.35
2023-02-03T07:44:29.756Z,3.53
2023-02-03T07:46:31.712Z,3.20
2023-02-03T07:48:33.767Z,2.90
2023-02-03T07:50:35.580Z,4.88
2023-02-03T07:52:38.306Z,4.82
2023-02-03T07:54:40.098Z,3.97
2023-02-03T07:56:43.244Z,7.22
2023-02-03T07:58:45.315Z,4.53
2023-02-03T08:00:47.126Z,5.25
2023-02-03T08:02:48.949Z,7.18
2023-02-03T08:04:51.239Z,6.00
2023-02-03T08:06:53.083Z,4.82
2023-02-03T08:08:54.924Z,3.22
2023-02-03T08:10:57.211Z,6.10
2023-02-03T08:12:59.103Z,4.45
2023-02-03T08:15:01.178Z,2.90
2023-02-03T08:17:03.073Z,7.28
2023-02-03T08:19:07.085Z,5.47
2023-02-03T08:21:11.429Z,9.02
2023-02-03T08:23:13.339Z,2.03
2023-02-03T08:25:15.443Z,4.57
2023-02-03T08:27:19.745Z,5.35
2023-02-03T08:29:21.760Z,10.35
2023-02-03T08:31:26.214Z,2.75
2023-02-03T08:33:29.057Z,2.88
2023-02-03T08:35:30.869Z,6.53
2023-02-03T08:37:33.185Z,7.70
2023-02-03T08:39:35.556Z,6.45
2023-02-03T08:41:37.426Z,5.13
2023-02-03T08:43:39.883Z,8.70
2023-02-03T08:45:41.861Z,5.63
2023-02-03T08:47:43.776Z,4.50
2023-02-03T08:49:45.943Z,3.75
2023-02-03T08:51:49.450Z,6.40
2023-02-03T08:53:52.053Z,9.05
2023-02-03T08:55:56.421Z,7.78
2023-02-03T08:57:58.460Z,3.28
2023-02-03T09:00:00.319Z,3.67
2023-02-03T09:02:04.627Z,9.10
2023-02-03T09:04:09.094Z,6.40
2023-02-03T09:06:16.945Z,6.05
2023-02-03T09:08:18.740Z,7.22
2023-02-03T09:10:20.639Z,4.35
2023-02-03T09:12:22.799Z,2.75
2023-02-03T09:14:27.642Z,4.57
2023-02-03T09:16:31.156Z,5.78
2023-02-03T09:18:33.325Z,5.78
2023-02-03T09:20:35.229Z,5.93
2023-02-03T09:22:37.521Z,6.88
2023-02-03T09:24:40.074Z,4.22
2023-02-03T09:26:45.725Z,7.00
2023-02-03T09:28:47.982Z,7.57
2023-02-03T09:30:52.428Z,5.97
2023-02-03T09:32:56.546Z,4.45
2023-02-03T09:34:58.493Z,6.55
2023-02-03T09:37:02.914Z,5.35
2023-02-03T09:39:05.299Z,8.75
2023-02-03T09:41:12.817Z,3.25
2023-02-03T09:43:21.198Z,3.90
2023-02-03T09:45:26.492Z,4.53
2023-02-03T09:47:32.829Z,8.27
2023-02-03T09:49:41.183Z,6.20
2023-02-03T09:51:51.288Z,8.80
2023-02-03T09:54:01.347Z,6.03
2023-02-03T09:56:03.519Z,5.40
2023-02-03T09:58:09.955Z,3.83
2023-02-03T10:00:19.712Z,2.88
2023-02-03T10:02:25.395Z,5.40
2023-02-03T10:04:34.405Z,3.47
2023-02-03T10:06:40.623Z,6.45
2023-02-03T10:08:59.660Z,4.40
2023-02-03T10:11:10.570Z,4.78
2023-02-03T10:13:19.050Z,8.60
2023-02-03T10:15:32.160Z,3.95
2023-02-03T10:17:41.546Z,4.32
2023-02-03T10:19:47.410Z,5.72
2023-02-03T10:21:55.480Z,4.88
2023-02-03T10:24:00.119Z,6.50
2023-02-03T10:26:06.571Z,6.85
2023-02-03T10:28:18.538Z,4.55
2023-02-03T10:30:25.370Z,8.80
2023-02-03T10:32:28.092Z,10.00
2023-02-03T10:34:29.998Z,6.00
2023-02-03T10:36:38.192Z,3.67
2023-02-03T10:38:43.637Z,9.25
2023-02-03T10:40:46.541Z,8.27
2023-02-03T10:42:52.391Z,8.73
2023-02-03T10:44:59.117Z,6.88
2023-02-03T10:47:01.139Z,7.35
2023-02-03T10:49:03.778Z,11.68
2023-02-03T10:51:15.718Z,13.25
2023-02-03T10:53:19.347Z,3.35
2023-02-03T10:55:23.123Z,5.88
2023-02-03T10:57:25.854Z,4.95
2023-02-03T10:59:32.535Z,8.00
2023-02-03T11:01:41.174Z,7.10
2023-02-03T11:03:55.079Z,8.20
2023-02-03T11:06:03.555Z,3.88
2023-02-03T11:08:15.583Z,5.43
2023-02-03T11:10:23.717Z,3.22
2023-02-03T11:12:26.062Z,9.25
2023-02-03T11:14:37.059Z,7.10
2023-02-03T11:16:41.667Z,6.97
2023-02-03T11:18:46.298Z,9.98
2023-02-03T11:20:48.322Z,6.50
2023-02-03T11:22:50.374Z,5.15
2023-02-03T11:24:52.636Z,4.25
2023-02-03T11:27:00.534Z,3.25
2023-02-03T11:29:04.896Z,5.93
2023-02-03T11:31:18.171Z,6.80
2023-02-03T11:33:24.721Z,5.65
2023-02-03T11:35:29.580Z,9.82
2023-02-03T11:37:42.094Z,7.10
2023-02-03T11:39:44.085Z,5.90
2023-02-03T11:41:47.315Z,4.43
2023-02-03T11:43:54.682Z,3.17
2023-02-03T11:46:03.158Z,4.22
2023-02-03T11:48:11.214Z,3.17
2023-02-03T11:50:21.704Z,5.82
2023-02-03T11:52:34.070Z,6.97
2023-02-03T11:54:48.713Z,3.92
2023-02-03T11:56:57.271Z,4.10
2023-02-03T11:59:05.373Z,7.10
2023-02-03T12:01:11.092Z,4.68
2023-02-03T12:03:27.024Z,2.83
2023-02-03T12:05:32.406Z,4.63
2023-02-03T12:07:43.553Z,4.28
2023-02-03T12:09:51.839Z,7.05
2023-02-03T12:12:05.636Z,8.02
2023-02-03T12:14:13.722Z,4.43
2023-02-03T12:16:21.895Z,4.03
2023-02-03T12:18:27.303Z,3.65
2023-02-03T12:20:33.671Z,3.63
2023-02-03T12:22:45.085Z,9.80
2023-02-03T12:24:55.222Z,6.43
2023-02-03T12:27:02.399Z,4.45
2023-02-03T12:29:12.666Z,3.80
2023-02-03T12:31:22.042Z,4.30
2023-02-03T12:33:30.527Z,3.88
2023-02-03T12:35:35.286Z,5.07
2023-02-03T12:37:41.704Z,4.68
2023-02-03T12:39:49.075Z,4.25
2023-02-03T12:42:00.436Z,7.68
2023-02-03T12:44:08.663Z,10.15
2023-02-03T12:46:18.391Z,3.97
2023-02-03T12:48:29.460Z,4.65
2023-02-03T12:50:35.674Z,7.63
2023-02-03T12:52:48.093Z,4.32
2023-02-03T12:54:56.262Z,2.38
2023-02-03T12:57:08.306Z,1.60
2023-02-03T12:59:17.154Z,3.55
2023-02-03T13:01:25.385Z,3.92
2023-02-03T13:03:33.506Z,5.90
2023-02-03T13:05:42.159Z,2.28
2023-02-03T13:07:49.592Z,3.63
2023-02-03T13:10:01.011Z,4.00
2023-02-03T13:12:09.108Z,9.00
2023-02-03T13:14:17.207Z,5.53
2023-02-03T13:16:25.697Z,6.28
2023-02-03T13:18:34.668Z,4.85
2023-02-03T13:20:37.252Z,3.50
2023-02-03T13:22:39.137Z,7.50
2023-02-03T13:24:49.105Z,3.47
2023-02-03T13:26:57.647Z,4.17
2023-02-03T13:29:01.306Z,5.50
2023-02-03T13:31:09.614Z,3.28
2023-02-03T13:33:24.870Z,6.38
2023-02-03T13:35:36.615Z,3.03
2023-02-03T13:37:49.168Z,4.03
2023-02-03T13:40:00.879Z,8.07
2023-02-03T13:42:08.979Z,3.22
2023-02-03T13:44:15.703Z,6.25
2023-02-03T13:46:22.449Z,11.07
2023-02-03T13:48:28.002Z,4.43
2023-02-03T13:50:31.168Z,4.65
2023-02-03T13:52:36.574Z,3.97
2023-02-03T13:54:44.280Z,4.95
2023-02-03T13:56:57.520Z,9.43
2023-02-03T13:59:04.473Z,4.22
2023-02-03T14:01:30.161Z,3.28
2023-02-03T14:03:33.192Z,1.98
2023-02-03T14:05:40.847Z,5.57
2023-02-03T14:07:42.739Z,5.53
2023-02-03T14:09:47.168Z,8.80
2023-02-03T14:11:52.196Z,4.38
2023-02-03T14:13:55.059Z,4.53
2023-02-03T14:16:14.251Z,5.13
2023-02-03T14:18:32.025Z,4.68
2023-02-03T14:20:39.522Z,3.90
2023-02-03T14:22:41.698Z,5.78
2023-02-03T14:24:47.225Z,5.57
2023-02-03T14:26:52.147Z,5.30
2023-02-03T14:28:54.571Z,5.05
2023-02-03T14:31:05.461Z,6.53
2023-02-03T14:33:07.439Z,6.30
2023-02-03T14:35:15.619Z,2.80
2023-02-03T14:37:21.187Z,3.67
2023-02-03T14:39:29.365Z,4.30
2023-02-03T14:41:37.383Z,5.95
2023-02-03T14:43:50.778Z,5.13
2023-02-03T14:45:59.135Z,2.30
2023-02-03T14:48:12.632Z,4.25
2023-02-03T14:50:18.511Z,3.88
2023-02-03T14:52:24.143Z,6.90
2023-02-03T14:54:32.230Z,4.93
2023-02-03T14:56:57.457Z,2.78
2023-02-03T14:59:05.032Z,5.53
2023-02-03T15:01:08.473Z,4.97
2023-02-03T15:03:11.219Z,6.13
2023-02-03T15:05:14.355Z,5.93
2023-02-03T15:07:22.649Z,4.95
2023-02-03T15:09:31.222Z,6.30
2023-02-03T15:11:34.324Z,5.03
2023-02-03T15:13:36.744Z,5.22
2023-02-03T15:15:39.648Z,4.13
2023-02-03T15:17:42.209Z,3.60
2023-02-03T15:19:44.119Z,5.50
2023-02-03T15:21:46.464Z,5.45
2023-02-03T15:23:49.683Z,5.55
2023-02-03T15:25:56.313Z,5.22
2023-02-03T15:28:04.450Z,6.55
2023-02-03T15:30:17.460Z,4.97
2023-02-03T15:32:25.187Z,3.97
2023-02-03T15:34:33.299Z,2.60
2023-02-03T15:36:43.326Z,4.43
2023-02-03T15:38:55.858Z,3.60
2023-02-03T15:40:59.266Z,6.80
2023-02-03T15:43:04.730Z,2.10
2023-02-03T15:45:22.751Z,3.58
2023-02-03T15:47:31.166Z,1.85
2023-02-03T15:49:42.141Z,3.10
2023-02-03T15:51:49.770Z,2.75
2023-02-03T15:53:55.026Z,5.75
2023-02-03T15:56:01.322Z,5.78
2023-02-03T15:58:04.279Z,1.38
2023-02-03T16:00:09.747Z,2.45
2023-02-03T16:02:16.167Z,5.85
2023-02-03T16:04:19.310Z,4.25
2023-02-03T16:06:27.328Z,9.18
2023-02-03T16:08:39.896Z,5.13
2023-02-03T16:10:41.813Z,2.58
2023-02-03T16:12:43.770Z,3.03
2023-02-03T16:14:46.568Z,4.97
2023-02-03T16:17:04.369Z,3.13
2023-02-03T16:19:15.394Z,4.68
2023-02-03T16:21:29.203Z,6.00
2023-02-03T16:23:31.274Z,2.95
2023-02-03T16:25:35.109Z,3.15
2023-02-03T16:27:37.249Z,2.38
2023-02-03T16:29:42.636Z,5.38
2023-02-03T16:31:49.716Z,4.90
2023-02-03T16:33:55.002Z,5.78
2023-02-03T16:36:02.240Z,6.90
2023-02-03T16:38:10.039Z,5.45
2023-02-03T16:40:17.424Z,2.95
2023-02-03T16:42:24.587Z,6.55
2023-02-03T16:44:29.652Z,6.28
2023-02-03T16:46:35.198Z,5.40
2023-02-03T16:48:40.160Z,5.57
2023-02-03T16:50:46.311Z,3.72
2023-02-03T16:52:48.719Z,6.78
2023-02-03T16:54:50.764Z,3.05
2023-02-03T16:56:52.655Z,3.55
2023-02-03T16:58:54.557Z,2.33
2023-02-03T17:00:59.315Z,5.95
2023-02-03T17:03:05.173Z,4.28
2023-02-03T17:05:07.261Z,3.20
2023-02-03T17:07:09.284Z,3.95
2023-02-03T17:09:11.334Z,3.00
2023-02-03T17:11:18.527Z,2.63
2023-02-03T17:13:21.863Z,5.25
2023-02-03T17:15:23.769Z,5.13
2023-02-03T17:17:25.736Z,3.63
2023-02-03T17:19:27.648Z,6.38
2023-02-03T17:21:30.014Z,6.38
2023-02-03T17:23:31.883Z,3.47
2023-02-03T17:25:36.438Z,2.97
2023-02-03T17:27:38.550Z,6.53
2023-02-03T17:29:40.505Z,7.32
2023-02-03T17:31:45.470Z,7.25
2023-02-03T17:33:51.413Z,3.08
2023-02-03T17:35:59.708Z,4.05
2023-02-03T17:38:01.680Z,2.65
2023-02-03T17:54:07.579Z,3.38
2023-02-03T17:56:11.814Z,6.53
2023-02-03T17:58:14.228Z,4.22
2023-02-03T18:00:17.277Z,2.65
2023-02-03T18:02:19.190Z,6.30
2023-02-03T18:04:21.481Z,4.20
2023-02-03T18:06:25.437Z,4.05
2023-02-03T18:08:27.361Z,3.15
2023-02-03T18:10:29.564Z,4.60
2023-02-03T18:12:31.788Z,3.53
2023-02-03T18:14:34.286Z,4.95
2023-02-03T18:16:36.713Z,6.22
2023-02-03T18:18:39.639Z,5.85
2023-02-03T18:20:41.526Z,5.03
2023-02-03T18:22:44.478Z,5.25
2023-02-03T18:24:51.302Z,5.72
2023-02-03T18:26:56.066Z,2.72
2023-02-03T18:28:58.418Z,8.00
2023-02-03T18:31:04.116Z,3.60
2023-02-03T18:33:06.468Z,5.43
2023-02-03T18:35:13.033Z,6.00
2023-02-03T18:37:14.848Z,6.00
2023-02-03T18:39:18.275Z,2.67
2023-02-03T18:41:22.504Z,6.18
2023-02-03T18:43:24.330Z,9.60
2023-02-03T18:45:26.257Z,5.45
2023-02-03T18:47:28.026Z,5.28
2023-02-03T18:49:30.200Z,7.50
2023-02-03T18:51:32.164Z,7.30
2023-02-03T18:53:34.071Z,5.68
2023-02-03T18:55:36.481Z,4.65
2023-02-03T18:57:38.754Z,9.10
2023-02-03T18:59:40.623Z,6.43
2023-02-03T19:01:46.572Z,3.67
2023-02-03T19:03:49.137Z,4.18
2023-02-03T19:05:51.453Z,5.70
2023-02-03T19:07:53.439Z,6.60
2023-02-03T19:09:55.319Z,5.60
2023-02-03T19:11:59.243Z,6.30
2023-02-03T19:14:04.164Z,3.45
2023-02-03T19:16:07.036Z,3.17
2023-02-03T19:18:09.685Z,3.50
2023-02-03T19:20:13.058Z,5.07
2023-02-03T19:22:15.510Z,4.95
2023-02-03T19:24:21.533Z,3.40
2023-02-03T19:26:26.619Z,2.60
2023-02-03T19:28:31.176Z,4.13
2023-02-03T19:30:34.277Z,6.03
2023-02-03T19:32:38.459Z,4.40
2023-02-03T19:34:40.844Z,7.50
2023-02-03T19:36:43.224Z,4.72
2023-02-03T19:38:45.464Z,8.27
2023-02-03T19:40:47.573Z,4.88
2023-02-03T19:42:50.293Z,7.20
2023-02-03T19:44:52.471Z,10.27
2023-02-03T19:46:54.652Z,13.38
2023-02-03T19:48:56.647Z,5.78
2023-02-03T19:50:58.530Z,8.77
2023-02-03T19:53:00.733Z,5.65
2023-02-03T19:55:02.669Z,4.70
2023-02-03T19:57:04.580Z,3.28
2023-02-03T19:59:06.668Z,5.07
2023-02-03T20:01:10.300Z,3.75
2023-02-03T20:03:12.368Z,6.53
2023-02-03T20:05:14.924Z,9.60
2023-02-03T20:07:16.977Z,8.15
2023-02-03T20:09:18.743Z,3.80
2023-02-03T20:11:20.752Z,5.50
2023-02-03T20:13:22.603Z,9.52
2023-02-03T20:15:24.439Z,5.22
2023-02-03T20:17:26.845Z,5.20
2023-02-03T20:19:28.687Z,5.50
2023-02-03T20:21:31.033Z,5.88
2023-02-03T20:23:35.277Z,7.57
2023-02-03T20:25:37.122Z,6.00
2023-02-03T20:27:38.950Z,5.47
2023-02-03T20:29:41.391Z,9.13
2023-02-03T20:31:46.425Z,9.75
2023-02-03T20:33:49.172Z,9.95
2023-02-03T20:35:51.450Z,9.63
2023-02-03T20:37:53.491Z,9.63
2023-02-03T20:39:55.398Z,8.73
2023-02-03T20:41:57.698Z,11.00
2023-02-03T20:43:59.611Z,7.18
2023-02-03T20:46:01.684Z,9.48
2023-02-03T20:48:03.871Z,8.13
2023-02-03T20:50:12.815Z,9.95
2023-02-03T20:52:16.826Z,6.53
2023-02-03T20:54:21.457Z,8.98
2023-02-03T20:56:23.901Z,12.32
2023-02-03T20:58:29.546Z,10.02
2023-02-03T21:00:31.787Z,8.57
2023-02-03T21:02:54.208Z,14.43
2023-02-03T21:04:59.349Z,9.50
2023-02-03T21:07:06.735Z,12.57
2023-02-03T21:09:14.960Z,11.35
2023-02-03T21:11:20.483Z,12.40
2023-02-03T21:13:25.278Z,10.02
2023-02-03T21:15:29.668Z,10.15
2023-02-03T21:17:35.979Z,10.65
2023-02-03T21:19:40.082Z,10.30
2023-02-03T21:21:42.637Z,17.30
2023-02-03T21:23:47.610Z,13.15
2023-02-03T21:25:49.645Z,13.75
2023-02-03T21:27:51.941Z,10.90
2023-02-03T21:29:57.565Z,12.40
2023-02-03T21:32:00.433Z,10.65
2023-02-03T21:34:16.713Z,13.60
2023-02-03T21:36:22.038Z,12.27
2023-02-03T21:38:31.549Z,13.75
2023-02-03T21:40:35.006Z,14.77
2023-02-03T21:42:39.917Z,13.27
2023-02-03T21:44:44.307Z,14.20
2023-02-03T21:46:46.213Z,14.57
2023-02-03T21:48:51.441Z,12.20
2023-02-03T21:50:55.431Z,18.92
2023-02-03T21:53:21.578Z,9.35
2023-02-03T21:55:23.411Z,12.57
2023-02-03T21:57:25.236Z,13.10
2023-02-03T21:59:37.344Z,16.20
2023-02-03T22:01:39.484Z,11.98
2023-02-03T22:03:43.333Z,11.20
2023-02-03T22:05:50.500Z,14.00
2023-02-03T22:07:52.381Z,15.55
2023-02-03T22:09:54.669Z,12.32
2023-02-03T22:11:56.410Z,13.73
2023-02-03T22:13:58.291Z,16.83
2023-02-03T22:16:01.435Z,10.50
2023-02-03T22:18:04.174Z,16.45
2023-02-03T22:20:07.169Z,13.48
2023-02-03T22:22:09.150Z,12.95
2023-02-03T22:24:11.068Z,14.18
2023-02-03T22:26:16.711Z,15.52
2023-02-03T22:28:19.018Z,10.60
2023-02-03T22:30:21.079Z,11.30
2023-02-03T22:32:23.392Z,11.70
2023-02-03T22:34:25.697Z,12.57
2023-02-03T22:36:27.528Z,12.43
2023-02-03T22:38:29.989Z,14.70
2023-02-03T22:40:32.694Z,17.90
2023-02-03T22:42:34.567Z,13.98
2023-02-03T22:44:36.348Z,16.27
2023-02-03T22:46:38.308Z,17.88
2023-02-03T22:48:40.217Z,12.38
2023-02-03T22:50:42.553Z,19.30
2023-02-03T22:52:44.556Z,18.75
2023-02-03T22:54:46.422Z,21.08
2023-02-03T22:56:48.217Z,14.65
2023-02-03T22:58:50.542Z,12.88
2023-02-03T23:00:52.432Z,16.30
2023-02-03T23:02:54.571Z,14.88
2023-02-03T23:04:56.456Z,13.77
2023-02-03T23:06:58.340Z,19.38
2023-02-03T23:09:00.245Z,16.42
2023-02-03T23:11:02.082Z,16.63
2023-02-03T23:13:04.041Z,12.43
2023-02-03T23:15:06.462Z,15.32
2023-02-03T23:17:08.313Z,13.75
2023-02-03T23:19:10.161Z,12.80
2023-02-03T23:21:12.394Z,13.75
2023-02-03T23:23:14.418Z,11.82
2023-02-03T23:25:16.290Z,14.35
2023-02-03T23:27:18.530Z,15.48
2023-02-03T23:29:20.341Z,13.00
2023-02-03T23:31:22.231Z,11.93
2023-02-03T23:33:24.145Z,14.85
2023-02-03T23:35:31.453Z,14.77
2023-02-03T23:37:33.695Z,14.00
2023-02-03T23:39:35.465Z,14.00
2023-02-03T23:41:37.229Z,13.27
2023-02-03T23:43:39.025Z,15.70
2023-02-03T23:45:41.337Z,14.30
2023-02-03T23:47:45.233Z,14.73
2023-02-03T23:49:47.093Z,18.23
2023-02-03T23:51:48.912Z,15.73
2023-02-03T23:53:52.999Z,14.57
2023-02-03T23:55:57.451Z,13.40
2023-02-03T23:57:59.390Z,19.83
